KFSM

Fort Smith Regional Airport

Fort Smith, Arkansas, USA
METAR KFSM 150053Z 05007KT 10SM OVC080 25/23 A2991 RMK AO2 SLP124 T02500228 $
Observed Flight Rules
Aug-15 @ 00:53 UTC (13 minutes ago) Visual Flight Rules
Wind Visibility Clouds
50° at 7 knots 10 miles
  • Overcast at 8,000' AGL
Temperatures Readings
Current 25°C / 77°F
Dewpoint 23°C / 73°F
Humidity 89%
Altimeter 29.91" Hg
Pressure 1012.4 hPa
Elevation 140
METAR KFSM 150053Z 05007KT 10SM OVC080 25/23 A2991 RMK AO2 SLP124 T02500228 $
Observed Flight Rules
Aug-15 @ 00:53 UTC
(13 minutes ago)
VFR
Wind Visibility
50° at 7 knots 10 miles
Clouds
  • Overcast at 8,000' AGL
Temperature Dewpoint
25°C / 77°F 23°C / 73°F
Humidity Altimeter Pressure
89% 29.91" Hg 1012.4 hPa